Time;durP1;ratioP1;P1;durP2;ratioP2;P2;SDS_P1;SDS_P2;PMS_P1;PMS_P2;Temp;Humidity;BMP_temperature;BMP_pressure;BME280_temperature;BME280_humidity;BME280_pressure;Samples;Min_cycle;Max_cycle;Signal;HPM_P1;HPM_P2
2021/04/10 00:00:52;;;;;;;11.13;3.80;;;;;;;;;;5024956;28;20039;-70
2021/04/10 00:03:17;;;;;;;7.67;3.60;;;;;;;;;;5035923;28;20037;-70
2021/04/10 00:05:42;;;;;;;10.97;3.43;;;;;;;;;;5034863;28;20033;-70
2021/04/10 00:08:08;;;;;;;9.93;2.70;;;;;;;;;;5037719;28;20056;-70
2021/04/10 00:10:33;;;;;;;8.60;3.20;;;;;;;;;;5030278;28;20103;-70
2021/04/10 00:12:59;;;;;;;10.53;3.50;;;;;;;;;;5032098;28;20037;-70
2021/04/10 00:15:24;;;;;;;8.77;3.03;;;;;;;;;;5044771;28;20559;-70
2021/04/10 00:17:50;;;;;;;7.50;3.30;;;;;;;;;;5045187;28;20025;-70
2021/04/10 00:20:17;;;;;;;8.30;2.93;;;;;;;;;;5045241;28;20029;-70
2021/04/10 00:22:42;;;;;;;13.30;3.80;;;;;;;;;;5040060;28;20029;-70
2021/04/10 00:25:09;;;;;;;13.87;3.43;;;;;;;;;;5042595;28;20282;-70
2021/04/10 00:27:34;;;;;;;9.30;3.43;;;;;;;;;;5044580;28;20025;-70
2021/04/10 00:29:59;;;;;;;8.93;3.33;;;;;;;;;;5039273;28;20755;-70
2021/04/10 00:32:25;;;;;;;6.73;3.03;;;;;;;;;;5041910;28;20445;-70
2021/04/10 00:34:50;;;;;;;11.50;3.30;;;;;;;;;;5040164;28;20068;-70
2021/04/10 00:37:16;;;;;;;12.80;3.57;;;;;;;;;;5030379;28;20030;-70
2021/04/10 00:39:41;;;;;;;7.07;3.57;;;;;;;;;;5037884;28;20034;-70
2021/04/10 00:42:06;;;;;;;8.20;3.30;;;;;;;;;;5032821;28;20730;-70
2021/04/10 00:44:32;;;;;;;7.00;3.07;;;;;;;;;;5034540;28;20036;-70
2021/04/10 00:46:57;;;;;;;16.97;7.73;;;;;;;;;;5037345;28;20060;-70
2021/04/10 00:49:22;;;;;;;11.17;4.17;;;;;;;;;;5017745;28;21853;-70
2021/04/10 00:51:47;;;;;;;9.90;3.37;;;;;;;;;;5034554;28;20036;-70
2021/04/10 00:54:13;;;;;;;6.93;3.23;;;;;;;;;;5038245;28;20028;-70
2021/04/10 00:56:38;;;;;;;10.27;3.10;;;;;;;;;;5046135;28;20457;-70
2021/04/10 00:59:04;;;;;;;7.40;3.37;;;;;;;;;;5045359;28;20028;-70
2021/04/10 01:01:29;;;;;;;6.67;2.90;;;;;;;;;;5035054;28;20135;-69
2021/04/10 01:03:55;;;;;;;7.73;2.80;;;;;;;;;;5017845;28;20033;-69
2021/04/10 01:06:20;;;;;;;7.23;3.00;;;;;;;;;;5027634;28;20066;-69
2021/04/10 01:08:45;;;;;;;10.73;3.27;;;;;;;;;;5033391;28;20020;-69
2021/04/10 01:11:14;;;;;;;9.97;3.20;;;;;;;;;;5039604;28;20063;-69
2021/04/10 01:13:39;;;;;;;7.90;3.40;;;;;;;;;;5037651;28;20144;-69
2021/04/10 01:16:04;;;;;;;11.73;3.53;;;;;;;;;;5033853;28;20347;-69
2021/04/10 01:18:34;;;;;;;10.87;2.80;;;;;;;;;;5041890;28;20039;-69
2021/04/10 01:21:05;;;;;;;9.73;2.67;;;;;;;;;;5039663;28;20480;-69
2021/04/10 01:23:49;;;;;;;12.60;3.30;;;;;;;;;;5026169;28;20286;-69
2021/04/10 01:26:24;;;;;;;9.73;2.93;;;;;;;;;;5053890;28;20760;-69
2021/04/10 01:28:49;;;;;;;8.17;3.00;;;;;;;;;;5047815;28;20271;-69
2021/04/10 01:31:15;;;;;;;11.30;3.27;;;;;;;;;;5042466;28;20267;-69
2021/04/10 01:33:44;;;;;;;9.00;3.10;;;;;;;;;;5039302;28;20033;-69
2021/04/10 01:36:10;;;;;;;10.40;3.30;;;;;;;;;;5040412;28;20404;-69
2021/04/10 01:38:36;;;;;;;12.50;4.47;;;;;;;;;;5039228;28;20275;-69
2021/04/10 01:41:03;;;;;;;11.60;3.20;;;;;;;;;;5028096;28;20755;-69
2021/04/10 01:43:29;;;;;;;9.40;3.03;;;;;;;;;;5037340;28;20452;-68
2021/04/10 01:45:55;;;;;;;6.93;3.13;;;;;;;;;;5039268;28;20271;-68
2021/04/10 01:48:21;;;;;;;9.00;3.33;;;;;;;;;;5020843;28;20033;-69
2021/04/10 01:50:48;;;;;;;6.67;2.93;;;;;;;;;;5038485;28;20348;-69
2021/04/10 01:53:14;;;;;;;8.07;3.20;;;;;;;;;;5041628;28;20397;-69
2021/04/10 01:55:39;;;;;;;8.67;3.13;;;;;;;;;;5038054;28;20288;-69
2021/04/10 01:58:05;;;;;;;7.63;2.83;;;;;;;;;;5044650;28;20139;-68
2021/04/10 02:00:31;;;;;;;5.50;2.80;;;;;;;;;;5041467;28;20529;-69
2021/04/10 02:02:57;;;;;;;9.23;2.93;;;;;;;;;;5044586;28;20076;-69
2021/04/10 02:05:23;;;;;;;7.97;2.70;;;;;;;;;;5033446;28;20283;-69
2021/04/10 02:07:49;;;;;;;7.77;2.53;;;;;;;;;;5030885;28;20025;-69
2021/04/10 02:10:16;;;;;;;7.03;3.47;;;;;;;;;;5018091;28;20112;-69
2021/04/10 02:12:42;;;;;;;9.63;3.10;;;;;;;;;;5030188;28;20429;-68
2021/04/10 02:15:08;;;;;;;8.90;2.90;;;;;;;;;;5029804;28;20289;-69
2021/04/10 02:17:33;;;;;;;7.03;2.53;;;;;;;;;;5029515;28;20660;-69
2021/04/10 02:19:58;;;;;;;9.33;2.80;;;;;;;;;;5031813;28;20076;-69
2021/04/10 02:22:26;;;;;;;8.47;3.10;;;;;;;;;;5028323;28;20025;-69
2021/04/10 02:24:51;;;;;;;7.47;2.70;;;;;;;;;;5036579;28;20377;-69
2021/04/10 02:27:16;;;;;;;10.23;2.80;;;;;;;;;;5031600;28;20264;-68
2021/04/10 02:29:42;;;;;;;8.43;2.47;;;;;;;;;;5029755;28;20363;-68
2021/04/10 02:32:09;;;;;;;24.27;3.13;;;;;;;;;;5033875;28;20018;-68
2021/04/10 02:34:38;;;;;;;6.23;2.40;;;;;;;;;;5040995;28;20041;-69
2021/04/10 02:37:05;;;;;;;12.20;3.00;;;;;;;;;;5024848;28;20310;-69
2021/04/10 02:39:31;;;;;;;7.27;2.53;;;;;;;;;;5024484;28;20280;-69
2021/04/10 02:42:00;;;;;;;6.17;2.30;;;;;;;;;;5025070;28;20323;-68
2021/04/10 02:44:34;;;;;;;7.30;2.50;;;;;;;;;;5024075;28;20037;-69
2021/04/10 02:47:02;;;;;;;12.03;2.90;;;;;;;;;;5040725;28;20782;-69
2021/04/10 02:49:28;;;;;;;11.47;2.60;;;;;;;;;;5028086;28;20272;-69
2021/04/10 02:51:55;;;;;;;6.10;2.43;;;;;;;;;;5027940;28;20326;-69
2021/04/10 02:54:21;;;;;;;6.97;2.20;;;;;;;;;;5027120;28;20280;-69
2021/04/10 02:56:50;;;;;;;9.47;2.17;;;;;;;;;;5029945;28;20272;-69
2021/04/10 02:59:17;;;;;;;9.97;2.50;;;;;;;;;;5031596;28;20341;-70
2021/04/10 03:01:44;;;;;;;9.00;2.30;;;;;;;;;;5024685;28;20324;-69
2021/04/10 03:04:09;;;;;;;6.33;2.20;;;;;;;;;;5048167;28;20276;-69
2021/04/10 03:06:35;;;;;;;8.90;2.00;;;;;;;;;;5039064;28;20662;-70
2021/04/10 03:09:01;;;;;;;13.30;2.63;;;;;;;;;;5042093;28;20036;-69
2021/04/10 03:11:28;;;;;;;7.23;2.03;;;;;;;;;;5035979;28;20029;-70
2021/04/10 03:13:53;;;;;;;8.77;2.63;;;;;;;;;;5043026;28;20268;-69
2021/04/10 03:16:20;;;;;;;15.33;3.03;;;;;;;;;;5038684;28;20438;-69
2021/04/10 03:18:48;;;;;;;10.57;2.70;;;;;;;;;;5047790;28;20450;-70
2021/04/10 03:21:13;;;;;;;6.60;2.10;;;;;;;;;;5048117;28;20306;-70
2021/04/10 03:23:38;;;;;;;8.27;2.27;;;;;;;;;;5043112;28;20268;-70
2021/04/10 03:26:04;;;;;;;9.30;2.20;;;;;;;;;;5037186;28;20438;-70
2021/04/10 03:28:30;;;;;;;8.30;2.00;;;;;;;;;;5045512;28;20049;-70
2021/04/10 03:30:56;;;;;;;12.07;2.70;;;;;;;;;;5043355;28;20318;-69
2021/04/10 03:33:22;;;;;;;9.50;2.27;;;;;;;;;;5039375;28;20068;-69
2021/04/10 03:35:48;;;;;;;7.93;2.13;;;;;;;;;;5037445;28;20319;-70
2021/04/10 03:38:13;;;;;;;8.43;2.17;;;;;;;;;;5044648;28;20032;-70
2021/04/10 03:40:39;;;;;;;10.50;2.50;;;;;;;;;;5043623;28;20017;-69
2021/04/10 03:43:04;;;;;;;10.97;2.73;;;;;;;;;;5038299;28;20021;-70
2021/04/10 03:45:29;;;;;;;10.00;2.43;;;;;;;;;;5045223;28;20030;-70
2021/04/10 03:47:55;;;;;;;7.53;2.43;;;;;;;;;;5036913;28;20428;-70
2021/04/10 03:50:22;;;;;;;6.73;2.00;;;;;;;;;;5039080;28;20367;-70
2021/04/10 03:52:47;;;;;;;8.17;1.87;;;;;;;;;;5044025;28;20793;-70
2021/04/10 03:55:12;;;;;;;9.03;2.20;;;;;;;;;;5026189;28;20323;-70
2021/04/10 03:57:38;;;;;;;6.77;2.37;;;;;;;;;;5036747;28;20419;-70
2021/04/10 04:00:04;;;;;;;9.33;2.30;;;;;;;;;;5030603;28;20432;-70
2021/04/10 04:02:29;;;;;;;9.03;2.67;;;;;;;;;;5040417;28;20045;-70
2021/04/10 04:04:55;;;;;;;7.43;2.30;;;;;;;;;;5030089;28;20351;-70
2021/04/10 04:07:20;;;;;;;7.87;1.83;;;;;;;;;;5048700;28;20496;-70
2021/04/10 04:09:46;;;;;;;8.53;2.03;;;;;;;;;;5044097;28;20045;-70
2021/04/10 04:12:12;;;;;;;6.37;2.10;;;;;;;;;;5037062;28;20353;-70
2021/04/10 04:14:37;;;;;;;6.60;1.70;;;;;;;;;;5041074;28;20025;-70
2021/04/10 04:17:04;;;;;;;7.83;2.27;;;;;;;;;;5039888;28;20390;-69
2021/04/10 04:19:30;;;;;;;9.53;3.00;;;;;;;;;;5041403;28;20028;-70
2021/04/10 04:21:55;;;;;;;5.90;2.10;;;;;;;;;;5035270;28;20641;-70
2021/04/10 04:24:20;;;;;;;8.30;1.73;;;;;;;;;;5036939;28;20069;-70
2021/04/10 04:26:46;;;;;;;10.13;2.30;;;;;;;;;;5034535;28;20032;-70
2021/04/10 04:29:11;;;;;;;8.40;1.67;;;;;;;;;;5046400;28;20086;-70
2021/04/10 04:31:36;;;;;;;6.80;1.87;;;;;;;;;;5039677;28;20364;-69
2021/04/10 04:34:02;;;;;;;8.03;2.00;;;;;;;;;;5041338;28;20029;-70
2021/04/10 04:36:27;;;;;;;8.67;2.00;;;;;;;;;;5045767;28;20036;-70
2021/04/10 04:38:52;;;;;;;9.67;2.43;;;;;;;;;;5036005;28;20037;-70
2021/04/10 04:41:18;;;;;;;10.13;1.90;;;;;;;;;;5038713;28;20474;-70
2021/04/10 04:43:43;;;;;;;6.23;1.60;;;;;;;;;;5040186;28;20025;-70
2021/04/10 04:46:08;;;;;;;6.83;1.70;;;;;;;;;;5045484;28;20040;-70
2021/04/10 04:48:33;;;;;;;9.80;2.17;;;;;;;;;;5044843;28;20086;-70
2021/04/10 04:50:59;;;;;;;12.83;2.20;;;;;;;;;;5038397;28;20462;-70
2021/04/10 04:53:24;;;;;;;7.07;1.70;;;;;;;;;;5040479;28;20034;-70
2021/04/10 04:55:49;;;;;;;10.23;1.97;;;;;;;;;;5033916;28;20069;-70
2021/04/10 04:58:15;;;;;;;4.83;1.77;;;;;;;;;;5044981;28;20029;-70
2021/04/10 05:00:40;;;;;;;7.83;2.20;;;;;;;;;;5043000;28;20017;-70
2021/04/10 05:03:05;;;;;;;6.43;1.83;;;;;;;;;;5038550;28;20460;-70
2021/04/10 05:05:31;;;;;;;6.57;1.80;;;;;;;;;;5039394;28;20060;-70
2021/04/10 05:07:56;;;;;;;5.87;1.60;;;;;;;;;;5042139;28;20061;-70
2021/04/10 05:10:21;;;;;;;10.43;1.83;;;;;;;;;;5030708;28;20436;-70
2021/04/10 05:12:46;;;;;;;7.17;2.00;;;;;;;;;;5039523;28;20100;-70
2021/04/10 05:15:12;;;;;;;7.40;1.67;;;;;;;;;;5046679;28;20079;-70
2021/04/10 05:17:37;;;;;;;10.13;2.63;;;;;;;;;;5037080;28;20018;-70
2021/04/10 05:20:03;;;;;;;7.37;1.50;;;;;;;;;;5036562;28;20516;-70
2021/04/10 05:22:28;;;;;;;9.37;1.83;;;;;;;;;;5043487;28;20021;-70
2021/04/10 05:24:53;;;;;;;5.70;1.80;;;;;;;;;;5045230;28;20029;-70
2021/04/10 05:27:19;;;;;;;3.70;1.27;;;;;;;;;;5038961;28;20124;-70
2021/04/10 05:29:44;;;;;;;4.23;1.80;;;;;;;;;;5038345;28;20031;-70
2021/04/10 05:32:09;;;;;;;8.27;1.80;;;;;;;;;;5038089;28;20382;-71
2021/04/10 05:34:36;;;;;;;9.03;2.00;;;;;;;;;;5040790;28;20040;-70
2021/04/10 05:37:01;;;;;;;5.20;1.67;;;;;;;;;;5042220;28;20021;-70
2021/04/10 05:39:27;;;;;;;3.70;1.30;;;;;;;;;;5036988;28;20329;-70
2021/04/10 05:41:52;;;;;;;4.73;1.50;;;;;;;;;;5029890;28;20538;-70
2021/04/10 05:44:18;;;;;;;7.80;1.47;;;;;;;;;;5041550;28;20079;-70
2021/04/10 05:46:43;;;;;;;6.77;1.93;;;;;;;;;;5042003;28;20055;-70
2021/04/10 05:49:08;;;;;;;7.97;1.40;;;;;;;;;;5042820;28;20020;-70
2021/04/10 05:51:34;;;;;;;6.60;1.40;;;;;;;;;;5047860;28;20048;-70
2021/04/10 05:53:59;;;;;;;7.30;1.30;;;;;;;;;;5038647;28;20024;-70
2021/04/10 05:56:24;;;;;;;7.23;1.80;;;;;;;;;;5038930;28;20041;-70
2021/04/10 05:58:49;;;;;;;8.07;2.07;;;;;;;;;;5031557;28;20048;-70
2021/04/10 06:01:15;;;;;;;7.63;1.57;;;;;;;;;;5037037;28;20052;-70
2021/04/10 06:03:40;;;;;;;7.50;2.13;;;;;;;;;;5028591;28;20018;-71
2021/04/10 06:06:06;;;;;;;8.67;1.13;;;;;;;;;;5036190;28;20051;-70
2021/04/10 06:08:32;;;;;;;4.70;1.53;;;;;;;;;;5042138;28;20034;-70
2021/04/10 06:10:57;;;;;;;5.33;1.53;;;;;;;;;;5042048;28;20390;-70
2021/04/10 06:13:23;;;;;;;9.17;1.53;;;;;;;;;;5037073;28;20292;-70
2021/04/10 06:15:48;;;;;;;5.23;1.20;;;;;;;;;;5031304;28;20112;-70
2021/04/10 06:18:13;;;;;;;5.20;1.20;;;;;;;;;;5048075;28;20067;-70
2021/04/10 06:20:38;;;;;;;5.20;1.20;;;;;;;;;;5035077;28;20035;-70
2021/04/10 06:23:04;;;;;;;5.37;1.13;;;;;;;;;;5044915;28;20079;-69
2021/04/10 06:25:30;;;;;;;4.13;1.20;;;;;;;;;;5040638;28;20079;-70
2021/04/10 06:27:55;;;;;;;4.83;1.00;;;;;;;;;;5042292;28;20047;-70
2021/04/10 06:30:21;;;;;;;7.43;1.33;;;;;;;;;;5038112;28;20033;-70
2021/04/10 06:32:46;;;;;;;7.07;1.30;;;;;;;;;;5050166;28;20428;-70
2021/04/10 06:35:11;;;;;;;4.87;1.30;;;;;;;;;;5041376;28;20398;-69
2021/04/10 06:37:37;;;;;;;7.30;1.83;;;;;;;;;;5044016;28;20078;-69
2021/04/10 06:40:05;;;;;;;5.50;1.17;;;;;;;;;;5042643;28;20112;-70
2021/04/10 06:42:32;;;;;;;3.63;1.13;;;;;;;;;;5037515;28;20025;-70
2021/04/10 06:44:58;;;;;;;7.47;1.03;;;;;;;;;;5026125;28;20053;-70
2021/04/10 06:47:23;;;;;;;7.73;1.10;;;;;;;;;;5030744;28;20740;-70
2021/04/10 06:49:50;;;;;;;6.10;1.70;;;;;;;;;;5035374;28;20029;-70
2021/04/10 06:52:16;;;;;;;3.63;0.90;;;;;;;;;;5042948;28;20159;-70
2021/04/10 06:54:42;;;;;;;3.30;1.10;;;;;;;;;;5041355;28;20092;-70
2021/04/10 06:57:17;;;;;;;3.10;0.80;;;;;;;;;;5037230;28;20024;-70
2021/04/10 06:59:54;;;;;;;4.40;0.77;;;;;;;;;;5039586;28;20049;-70
2021/04/10 07:02:20;;;;;;;9.37;1.77;;;;;;;;;;5046082;28;20056;-70
2021/04/10 07:04:45;;;;;;;3.07;0.60;;;;;;;;;;5035018;28;20233;-71
2021/04/10 07:07:11;;;;;;;9.40;1.20;;;;;;;;;;5037706;28;20474;-70
2021/04/10 07:09:36;;;;;;;2.57;0.90;;;;;;;;;;5036241;28;20375;-70
2021/04/10 07:12:05;;;;;;;1.87;0.73;;;;;;;;;;5042473;28;20029;-70
2021/04/10 07:14:31;;;;;;;5.80;0.70;;;;;;;;;;5041726;28;20071;-70
2021/04/10 07:16:57;;;;;;;3.23;0.83;;;;;;;;;;5030812;28;20057;-70
2021/04/10 07:19:24;;;;;;;4.73;0.93;;;;;;;;;;5044330;28;20025;-70
2021/04/10 07:22:10;;;;;;;4.00;1.07;;;;;;;;;;5048175;28;20029;-70
2021/04/10 07:24:36;;;;;;;2.07;0.70;;;;;;;;;;5042078;28;20040;-70
2021/04/10 07:27:02;;;;;;;4.50;0.60;;;;;;;;;;5044001;28;20029;-69
2021/04/10 07:29:30;;;;;;;5.13;1.07;;;;;;;;;;5042097;28;20048;-70
2021/04/10 07:31:56;;;;;;;4.23;1.00;;;;;;;;;;5047469;28;20029;-70
2021/04/10 07:34:21;;;;;;;3.30;1.10;;;;;;;;;;5035942;28;20032;-69
2021/04/10 07:37:00;;;;;;;3.50;0.63;;;;;;;;;;5037071;28;20025;-70
2021/04/10 07:39:25;;;;;;;6.33;0.90;;;;;;;;;;5041154;28;20032;-70
2021/04/10 07:41:58;;;;;;;2.43;0.70;;;;;;;;;;5027598;28;20378;-70
2021/04/10 07:44:42;;;;;;;5.07;1.00;;;;;;;;;;5028698;28;20112;-70
2021/04/10 07:47:08;;;;;;;4.27;0.70;;;;;;;;;;5043279;28;20072;-69
2021/04/10 07:49:34;;;;;;;2.63;0.90;;;;;;;;;;5039219;28;20148;-69
2021/04/10 07:52:03;;;;;;;6.80;0.80;;;;;;;;;;5030400;28;20168;-69
2021/04/10 07:54:30;;;;;;;3.40;0.63;;;;;;;;;;5041755;28;20056;-69
2021/04/10 07:56:56;;;;;;;2.23;0.80;;;;;;;;;;5035140;28;20082;-69
2021/04/10 07:59:21;;;;;;;9.23;1.13;;;;;;;;;;5045864;28;20473;-69
2021/04/10 08:01:47;;;;;;;2.10;0.77;;;;;;;;;;5040620;28;20037;-69
2021/04/10 08:04:15;;;;;;;3.03;0.73;;;;;;;;;;5044905;28;20090;-70
2021/04/10 08:06:55;;;;;;;8.23;1.27;;;;;;;;;;5042875;28;20501;-70
2021/04/10 08:09:33;;;;;;;2.33;0.73;;;;;;;;;;5030770;28;20021;-69
2021/04/10 08:11:59;;;;;;;4.80;1.00;;;;;;;;;;5033409;28;20561;-70
2021/04/10 08:14:24;;;;;;;4.57;1.30;;;;;;;;;;5042153;28;20119;-70
2021/04/10 08:16:51;;;;;;;6.87;1.10;;;;;;;;;;5028363;28;20497;-69
2021/04/10 08:19:17;;;;;;;3.20;1.00;;;;;;;;;;5028248;28;20025;-70
2021/04/10 08:21:43;;;;;;;5.43;0.80;;;;;;;;;;5039105;28;20032;-69
2021/04/10 08:24:21;;;;;;;3.03;0.97;;;;;;;;;;5043216;28;20021;-69
2021/04/10 08:26:47;;;;;;;3.20;0.90;;;;;;;;;;5037021;28;20041;-70
2021/04/10 08:29:12;;;;;;;4.50;1.00;;;;;;;;;;5029559;28;20017;-69
2021/04/10 08:31:37;;;;;;;2.50;0.70;;;;;;;;;;5030403;28;20017;-70
2021/04/10 08:34:03;;;;;;;5.50;1.00;;;;;;;;;;5035266;28;20496;-70
2021/04/10 08:36:28;;;;;;;5.70;1.13;;;;;;;;;;5041412;28;20033;-69
2021/04/10 08:38:53;;;;;;;8.03;1.00;;;;;;;;;;5045003;28;20111;-69
2021/04/10 08:41:19;;;;;;;3.43;0.77;;;;;;;;;;5043636;28;20155;-70
2021/04/10 08:43:46;;;;;;;3.47;0.90;;;;;;;;;;5040935;28;20025;-69
2021/04/10 08:46:13;;;;;;;4.90;1.00;;;;;;;;;;5042965;28;20157;-69
2021/04/10 08:48:38;;;;;;;7.40;1.00;;;;;;;;;;5045343;28;20136;-69
2021/04/10 08:51:07;;;;;;;4.07;1.00;;;;;;;;;;5039098;28;20648;-69
2021/04/10 08:53:36;;;;;;;3.93;0.83;;;;;;;;;;5044680;28;20036;-69
2021/04/10 08:56:06;;;;;;;4.77;1.13;;;;;;;;;;5041683;28;20151;-69
2021/04/10 08:58:31;;;;;;;2.67;0.80;;;;;;;;;;5035029;28;20035;-69
2021/04/10 09:00:57;;;;;;;3.73;0.90;;;;;;;;;;5039760;28;20045;-69
2021/04/10 09:03:41;;;;;;;2.53;0.80;;;;;;;;;;5040099;28;20033;-69
2021/04/10 09:06:07;;;;;;;3.40;0.83;;;;;;;;;;5039648;28;20120;-69
2021/04/10 09:08:32;;;;;;;6.73;0.70;;;;;;;;;;5043307;28;20469;-69
2021/04/10 09:10:58;;;;;;;5.03;0.93;;;;;;;;;;5040942;28;20079;-69
2021/04/10 09:13:25;;;;;;;4.73;1.17;;;;;;;;;;5035686;28;20029;-70
2021/04/10 09:16:10;;;;;;;4.60;0.70;;;;;;;;;;5041276;28;20412;-70
2021/04/10 09:18:36;;;;;;;4.80;0.83;;;;;;;;;;5045861;28;20025;-69
2021/04/10 09:21:10;;;;;;;6.83;0.97;;;;;;;;;;5037372;28;20028;-69
2021/04/10 09:23:35;;;;;;;4.27;1.10;;;;;;;;;;5038436;28;20372;-69
2021/04/10 09:26:10;;;;;;;4.87;1.20;;;;;;;;;;5033217;28;20028;-69
2021/04/10 09:28:56;;;;;;;2.63;0.50;;;;;;;;;;5036682;28;20108;-69
2021/04/10 09:31:41;;;;;;;6.63;1.13;;;;;;;;;;5035533;28;20033;-69
2021/04/10 09:34:26;;;;;;;4.57;1.10;;;;;;;;;;5027446;28;20048;-69
2021/04/10 09:36:52;;;;;;;5.23;1.20;;;;;;;;;;4984602;28;20040;-69
2021/04/10 09:39:35;;;;;;;3.30;1.33;;;;;;;;;;5040429;28;20441;-68
2021/04/10 09:42:01;;;;;;;2.43;0.70;;;;;;;;;;5032774;28;20681;-68
2021/04/10 09:44:26;;;;;;;4.83;0.83;;;;;;;;;;5035819;28;20029;-69
2021/04/10 09:46:54;;;;;;;5.40;1.07;;;;;;;;;;5041926;28;20527;-69
2021/04/10 09:49:38;;;;;;;7.63;1.37;;;;;;;;;;5038401;28;20025;-69
2021/04/10 09:52:04;;;;;;;5.70;0.90;;;;;;;;;;5038699;28;20033;-68
2021/04/10 09:54:31;;;;;;;2.80;0.80;;;;;;;;;;5033087;28;20397;-69
2021/04/10 09:56:56;;;;;;;5.17;1.23;;;;;;;;;;5043009;28;20052;-69
2021/04/10 09:59:21;;;;;;;4.70;1.33;;;;;;;;;;5042526;28;22179;-69
2021/04/10 10:01:47;;;;;;;5.07;1.10;;;;;;;;;;5037858;28;20160;-69
2021/04/10 10:04:16;;;;;;;6.93;1.30;;;;;;;;;;5025749;28;20625;-69
2021/04/10 10:06:46;;;;;;;3.10;0.90;;;;;;;;;;5036635;28;20025;-69
2021/04/10 10:09:28;;;;;;;3.37;1.10;;;;;;;;;;5043743;28;20568;-69
2021/04/10 10:11:54;;;;;;;4.25;1.25;;;;;;;;;;5032001;28;20033;-69
2021/04/10 10:14:19;;;;;;;2.60;1.00;;;;;;;;;;5028178;28;20029;-69
2021/04/10 10:16:44;;;;;;;2.87;1.00;;;;;;;;;;5031674;28;20114;-69
2021/04/10 10:19:19;;;;;;;5.10;0.77;;;;;;;;;;5044814;28;20032;-69
2021/04/10 10:21:45;;;;;;;4.17;0.87;;;;;;;;;;5039430;28;20028;-69
2021/04/10 10:24:10;;;;;;;4.07;0.97;;;;;;;;;;5040506;28;20032;-68
2021/04/10 10:26:38;;;;;;;5.93;0.83;;;;;;;;;;5038073;28;20041;-69
2021/04/10 10:29:11;;;;;;;4.57;0.90;;;;;;;;;;5029106;28;20029;-69
2021/04/10 10:31:41;;;;;;;3.87;0.93;;;;;;;;;;5031365;28;20151;-69
2021/04/10 10:34:07;;;;;;;4.30;1.07;;;;;;;;;;5033253;28;20084;-69
2021/04/10 10:36:34;;;;;;;3.30;0.90;;;;;;;;;;5029723;28;20124;-69
2021/04/10 10:38:59;;;;;;;2.97;0.90;;;;;;;;;;5013583;28;20036;-69
2021/04/10 10:41:24;;;;;;;4.87;1.10;;;;;;;;;;5047813;28;20393;-69
2021/04/10 10:43:50;;;;;;;5.07;1.13;;;;;;;;;;5047146;28;20029;-68
2021/04/10 10:46:19;;;;;;;4.57;1.20;;;;;;;;;;5034040;28;20037;-69
2021/04/10 10:48:46;;;;;;;5.17;1.00;;;;;;;;;;5048987;28;20440;-69
2021/04/10 10:51:13;;;;;;;5.43;1.10;;;;;;;;;;5047270;28;20094;-68
2021/04/10 10:53:40;;;;;;;3.93;1.27;;;;;;;;;;5037911;28;20029;-69
2021/04/10 10:56:05;;;;;;;6.60;1.13;;;;;;;;;;5028506;28;20553;-68
2021/04/10 10:58:32;;;;;;;7.23;1.20;;;;;;;;;;5049251;28;20135;-68
2021/04/10 11:00:58;;;;;;;3.13;0.93;;;;;;;;;;5043542;28;20049;-68
2021/04/10 11:03:23;;;;;;;2.57;0.83;;;;;;;;;;5028745;28;20037;-69
2021/04/10 11:05:49;;;;;;;3.33;1.07;;;;;;;;;;5028111;28;20449;-69
2021/04/10 11:08:18;;;;;;;2.67;1.00;;;;;;;;;;5031625;28;20029;-68
2021/04/10 11:10:47;;;;;;;4.33;1.40;;;;;;;;;;5032390;28;20037;-70
2021/04/10 11:13:16;;;;;;;7.30;1.03;;;;;;;;;;5025932;28;20142;-69
2021/04/10 11:15:43;;;;;;;4.70;1.17;;;;;;;;;;5042209;28;20037;-69
2021/04/10 11:18:23;;;;;;;6.70;0.97;;;;;;;;;;5042538;28;20426;-69
2021/04/10 11:20:48;;;;;;;2.87;1.07;;;;;;;;;;5038720;28;20032;-70
2021/04/10 11:23:13;;;;;;;6.67;1.23;;;;;;;;;;5041655;28;20025;-69
2021/04/10 11:25:53;;;;;;;4.23;1.10;;;;;;;;;;5041955;28;20136;-69
2021/04/10 11:28:31;;;;;;;3.50;1.10;;;;;;;;;;5038780;28;20037;-69
2021/04/10 11:31:03;;;;;;;2.60;1.00;;;;;;;;;;5041687;28;20028;-69
2021/04/10 11:33:32;;;;;;;4.95;1.08;;;;;;;;;;5030563;28;20040;-69
2021/04/10 11:35:58;;;;;;;4.00;1.40;;;;;;;;;;5040321;28;20029;-69
2021/04/10 11:38:23;;;;;;;7.70;1.53;;;;;;;;;;5032556;28;20381;-69
2021/04/10 11:40:48;;;;;;;9.73;1.57;;;;;;;;;;5026506;28;20025;-69
2021/04/10 11:43:14;;;;;;;6.73;1.17;;;;;;;;;;5034666;28;20020;-69
2021/04/10 11:45:40;;;;;;;3.70;0.97;;;;;;;;;;5028398;28;20401;-69
2021/04/10 11:48:06;;;;;;;6.53;2.03;;;;;;;;;;5229491;22;21101;-69
2021/04/10 11:50:38;;;;;;;3.97;1.40;;;;;;;;;;5084143;28;20024;-70
2021/04/10 11:53:10;;;;;;;4.85;1.88;;;;;;;;;;5082630;28;20062;-70
2021/04/10 11:55:35;;;;;;;7.28;1.20;;;;;;;;;;5084857;28;20035;-67
2021/04/10 11:58:01;;;;;;;6.10;1.67;;;;;;;;;;5082804;28;20036;-68
2021/04/10 12:00:27;;;;;;;7.50;1.37;;;;;;;;;;5083677;28;20039;-67
2021/04/10 12:02:52;;;;;;;6.93;1.70;;;;;;;;;;5087031;28;20024;-67
2021/04/10 12:05:28;;;;;;;5.70;1.43;;;;;;;;;;5089766;28;20035;-67
2021/04/10 12:08:12;;;;;;;4.70;1.40;;;;;;;;;;5084827;28;20032;-67
2021/04/10 12:10:41;;;;;;;7.57;2.37;;;;;;;;;;5089693;28;20044;-67
2021/04/10 12:13:06;;;;;;;3.40;1.23;;;;;;;;;;5093475;28;20495;-66
2021/04/10 12:15:33;;;;;;;8.23;2.33;;;;;;;;;;5089165;28;20035;-67
2021/04/10 12:17:58;;;;;;;5.63;1.90;;;;;;;;;;5085607;28;20017;-67
2021/04/10 12:20:24;;;;;;;5.03;1.43;;;;;;;;;;5087937;28;20028;-67
2021/04/10 12:22:49;;;;;;;5.63;1.77;;;;;;;;;;5092002;28;20032;-67
2021/04/10 12:25:15;;;;;;;3.20;1.37;;;;;;;;;;5086975;28;20114;-67
2021/04/10 12:27:40;;;;;;;5.83;1.90;;;;;;;;;;5088135;28;20039;-67
2021/04/10 12:30:06;;;;;;;7.73;1.70;;;;;;;;;;5096381;28;20027;-67
2021/04/10 12:32:32;;;;;;;5.73;1.50;;;;;;;;;;5105791;28;20028;-67
2021/04/10 12:34:57;;;;;;;6.37;1.70;;;;;;;;;;5104592;28;20035;-66
2021/04/10 12:37:23;;;;;;;5.17;1.53;;;;;;;;;;5105422;28;20062;-67
2021/04/10 12:39:48;;;;;;;8.17;2.63;;;;;;;;;;5104886;28;20460;-67
2021/04/10 12:42:13;;;;;;;4.23;1.60;;;;;;;;;;5105758;28;20063;-66
2021/04/10 12:44:38;;;;;;;3.93;1.83;;;;;;;;;;5104792;28;20027;-67
2021/04/10 12:47:04;;;;;;;4.70;2.00;;;;;;;;;;5101261;28;20116;-67
2021/04/10 12:49:31;;;;;;;5.70;1.80;;;;;;;;;;5088217;28;20059;-67
2021/04/10 12:51:57;;;;;;;5.80;2.00;;;;;;;;;;5085878;28;20460;-67
2021/04/10 12:54:22;;;;;;;5.07;1.80;;;;;;;;;;5083812;28;20039;-67
2021/04/10 12:56:47;;;;;;;8.97;2.43;;;;;;;;;;5070413;28;20113;-67
2021/04/10 12:59:12;;;;;;;8.00;2.60;;;;;;;;;;5084846;28;20024;-67
2021/04/10 13:01:38;;;;;;;7.07;2.10;;;;;;;;;;5076655;28;20042;-67
2021/04/10 13:04:03;;;;;;;9.50;2.43;;;;;;;;;;5083978;28;20058;-67
2021/04/10 13:06:28;;;;;;;8.00;2.60;;;;;;;;;;5085155;28;20032;-67
2021/04/10 13:08:54;;;;;;;9.83;2.50;;;;;;;;;;5085704;28;20081;-66
2021/04/10 13:11:19;;;;;;;7.10;2.40;;;;;;;;;;5085263;28;20042;-66
2021/04/10 13:13:44;;;;;;;6.60;2.63;;;;;;;;;;5085222;28;20032;-66
2021/04/10 13:16:09;;;;;;;8.23;2.20;;;;;;;;;;5084373;28;20364;-66
2021/04/10 13:18:35;;;;;;;6.57;2.20;;;;;;;;;;5085697;28;20027;-66
2021/04/10 13:21:00;;;;;;;9.53;2.93;;;;;;;;;;5084848;28;20705;-66
2021/04/10 13:23:25;;;;;;;7.27;3.10;;;;;;;;;;5085598;28;20085;-66
2021/04/10 13:25:51;;;;;;;7.20;2.93;;;;;;;;;;5074598;28;20039;-66
2021/04/10 13:28:16;;;;;;;8.53;2.23;;;;;;;;;;5084193;28;20532;-66
2021/04/10 13:30:41;;;;;;;10.13;3.97;;;;;;;;;;5072623;28;20051;-66
2021/04/10 13:33:06;;;;;;;7.63;2.37;;;;;;;;;;5073899;28;20036;-66
2021/04/10 13:35:32;;;;;;;7.73;3.00;;;;;;;;;;5066192;28;20032;-66
2021/04/10 13:37:57;;;;;;;13.83;3.37;;;;;;;;;;5083877;28;20111;-67
2021/04/10 13:40:22;;;;;;;9.43;3.03;;;;;;;;;;5075283;28;20035;-67
2021/04/10 13:42:48;;;;;;;16.57;4.20;;;;;;;;;;5080895;28;20024;-66
2021/04/10 13:45:13;;;;;;;9.30;3.40;;;;;;;;;;5085297;28;20599;-66
2021/04/10 13:47:39;;;;;;;9.27;4.27;;;;;;;;;;5083696;28;20028;-66
2021/04/10 13:50:04;;;;;;;11.83;3.83;;;;;;;;;;5086157;28;20052;-67
2021/04/10 13:52:29;;;;;;;11.07;3.60;;;;;;;;;;5085272;28;20024;-66
2021/04/10 13:54:55;;;;;;;11.00;3.80;;;;;;;;;;5086352;28;20496;-66
2021/04/10 13:57:20;;;;;;;8.60;3.47;;;;;;;;;;5085207;28;20046;-66
2021/04/10 13:59:45;;;;;;;10.83;4.07;;;;;;;;;;5084783;28;20028;-66
2021/04/10 14:02:10;;;;;;;11.90;4.00;;;;;;;;;;5067274;28;20024;-66
2021/04/10 14:04:55;;;;;;;9.80;3.40;;;;;;;;;;5084542;28;20035;-66
2021/04/10 14:07:20;;;;;;;7.80;4.00;;;;;;;;;;5085529;28;20035;-66
2021/04/10 14:09:45;;;;;;;7.73;3.70;;;;;;;;;;5089974;28;20036;-67
2021/04/10 14:12:11;;;;;;;13.03;3.83;;;;;;;;;;5087794;28;20036;-67
2021/04/10 14:14:36;;;;;;;9.17;3.47;;;;;;;;;;5089680;28;20136;-66
2021/04/10 14:17:01;;;;;;;8.27;3.13;;;;;;;;;;5089054;28;20059;-66
2021/04/10 14:19:26;;;;;;;7.50;3.10;;;;;;;;;;5085098;28;20458;-66
2021/04/10 14:21:52;;;;;;;6.07;3.00;;;;;;;;;;5069225;28;20035;-66
2021/04/10 14:24:17;;;;;;;6.50;3.20;;;;;;;;;;5083401;28;20548;-66
2021/04/10 14:26:42;;;;;;;8.60;2.60;;;;;;;;;;5084941;28;20027;-66
2021/04/10 14:29:08;;;;;;;7.97;3.17;;;;;;;;;;5085189;28;20153;-66
2021/04/10 14:31:33;;;;;;;8.40;2.87;;;;;;;;;;5080221;28;20033;-66
2021/04/10 14:33:58;;;;;;;7.03;2.87;;;;;;;;;;5085255;28;20106;-66
2021/04/10 14:36:24;;;;;;;8.90;3.73;;;;;;;;;;5085092;28;20088;-68
2021/04/10 14:38:49;;;;;;;6.47;2.83;;;;;;;;;;5083610;28;20028;-67